createdAt,value
2018-03-02T00:01:37.409Z,96092.26
2018-03-02T00:04:08.485Z,96087.48
2018-03-02T00:06:39.446Z,96076.00
2018-03-02T00:09:10.476Z,96072.60
2018-03-02T00:11:41.480Z,96071.98
2018-03-02T00:14:12.510Z,96065.66
2018-03-02T00:16:43.529Z,96065.37
2018-03-02T00:19:14.549Z,96067.58
2018-03-02T00:21:45.546Z,96064.38
2018-03-02T00:24:16.557Z,96064.64
2018-03-02T00:26:47.536Z,96054.40
2018-03-02T00:29:18.529Z,96055.45
2018-03-02T00:31:49.553Z,96052.37
2018-03-02T00:34:20.540Z,96052.58
2018-03-02T00:36:51.541Z,96055.79
2018-03-02T00:39:22.511Z,96051.95
2018-03-02T00:41:53.509Z,96044.27
2018-03-02T00:44:24.524Z,96044.11
2018-03-02T00:46:55.522Z,96035.67
2018-03-02T00:49:26.525Z,96029.91
2018-03-02T00:51:57.567Z,96021.50
2018-03-02T00:54:28.567Z,96012.20
2018-03-02T00:57:00.534Z,96013.02
2018-03-02T00:59:31.506Z,96009.23
2018-03-02T01:02:02.535Z,96000.49
2018-03-02T01:04:33.519Z,95994.88
2018-03-02T01:07:04.538Z,95994.31
2018-03-02T01:09:35.541Z,95988.05
2018-03-02T01:12:06.633Z,95984.15
2018-03-02T01:14:37.629Z,95987.15
2018-03-02T01:17:08.645Z,95976.33
2018-03-02T01:19:39.628Z,95979.70
2018-03-02T01:22:10.637Z,95985.47
2018-03-02T01:24:41.686Z,95990.92
2018-03-02T01:27:12.657Z,95985.36
2018-03-02T01:29:43.695Z,95979.27
2018-03-02T01:32:14.687Z,95977.83
2018-03-02T01:34:45.723Z,95982.09
2018-03-02T01:37:16.697Z,95980.56
2018-03-02T01:39:47.695Z,95974.09
2018-03-02T01:42:18.693Z,95964.50
2018-03-02T01:44:49.647Z,95960.87
2018-03-02T01:47:20.656Z,95957.47
2018-03-02T01:49:51.628Z,95954.75
2018-03-02T01:52:22.651Z,95962.58
2018-03-02T01:54:54.053Z,95960.81
2018-03-02T01:57:25.038Z,95956.92
2018-03-02T01:59:56.007Z,95956.98
2018-03-02T02:02:27.030Z,95951.58
2018-03-02T02:04:58.020Z,95947.55
2018-03-02T02:07:28.972Z,95949.08
2018-03-02T02:09:59.990Z,95943.23
2018-03-02T02:12:31.014Z,95932.98
2018-03-02T02:15:02.040Z,95932.56
2018-03-02T02:17:33.035Z,95930.17
2018-03-02T02:20:03.993Z,95920.77
2018-03-02T02:22:35.009Z,95920.98
2018-03-02T02:25:06.009Z,95923.34
2018-03-02T02:27:37.014Z,95912.04
2018-03-02T02:30:08.033Z,95915.17
2018-03-02T02:32:38.991Z,95904.11
2018-03-02T02:35:09.934Z,95904.05
2018-03-02T02:37:40.948Z,95902.77
2018-03-02T02:40:11.945Z,95901.97
2018-03-02T02:42:42.965Z,95894.55
2018-03-02T02:45:13.966Z,95898.38
2018-03-02T02:47:44.951Z,95897.67
2018-03-02T02:50:16.002Z,95902.55
2018-03-02T02:52:47.055Z,95892.54
2018-03-02T02:55:18.063Z,95895.41
2018-03-02T02:57:49.068Z,95890.80
2018-03-02T03:00:20.033Z,95890.59
2018-03-02T03:02:51.054Z,95873.09
2018-03-02T03:05:22.044Z,95880.41
2018-03-02T03:07:53.054Z,95879.81
2018-03-02T03:10:24.025Z,95877.42
2018-03-02T03:12:55.027Z,95885.30
2018-03-02T03:15:26.021Z,95885.87
2018-03-02T03:17:56.975Z,95892.77
2018-03-02T03:20:27.989Z,95889.65
2018-03-02T03:22:58.938Z,95888.23
2018-03-02T03:25:29.936Z,95886.12
2018-03-02T03:28:00.934Z,95889.73
2018-03-02T03:30:31.952Z,95882.53
2018-03-02T03:33:02.941Z,95886.47
2018-03-02T03:35:33.958Z,95890.76
2018-03-02T03:38:04.995Z,95887.63
2018-03-02T03:40:35.976Z,95885.46
2018-03-02T03:43:06.975Z,95884.86
2018-03-02T03:45:37.943Z,95882.90
2018-03-02T03:48:08.929Z,95885.63
2018-03-02T03:50:39.901Z,95885.50
2018-03-02T03:53:10.923Z,95878.77
2018-03-02T03:55:41.935Z,95871.66
2018-03-02T03:58:12.944Z,95870.39
2018-03-02T04:00:43.923Z,95868.52
2018-03-02T04:03:14.902Z,95868.95
2018-03-02T04:05:45.896Z,95861.95
2018-03-02T04:08:16.895Z,95850.16
2018-03-02T04:10:47.878Z,95842.69
2018-03-02T04:13:18.899Z,95837.55
2018-03-02T04:15:49.894Z,95844.08
2018-03-02T04:18:20.910Z,95837.35
2018-03-02T04:20:51.907Z,95831.48
2018-03-02T04:23:22.942Z,95821.53
2018-03-02T04:25:53.898Z,95817.67
2018-03-02T04:28:24.940Z,95810.31
2018-03-02T04:30:55.887Z,95808.16
2018-03-02T04:33:26.825Z,95803.25
2018-03-02T04:35:57.841Z,95802.69
2018-03-02T04:38:28.803Z,95792.53
2018-03-02T04:40:59.817Z,95780.30
2018-03-02T04:43:30.802Z,95786.20
2018-03-02T04:46:01.896Z,95782.84
2018-03-02T04:48:32.838Z,95778.86
2018-03-02T04:51:03.829Z,95782.11
2018-03-02T04:53:34.844Z,95778.98
2018-03-02T04:56:05.804Z,95773.34
2018-03-02T04:58:36.789Z,95770.97
2018-03-02T05:01:07.820Z,95768.88
2018-03-02T05:03:38.804Z,95766.09
2018-03-02T05:06:09.818Z,95766.02
2018-03-02T05:08:40.795Z,95776.80
2018-03-02T05:11:11.799Z,95763.94
2018-03-02T05:13:42.776Z,95765.70
2018-03-02T05:16:13.801Z,95761.16
2018-03-02T05:18:44.812Z,95755.52
2018-03-02T05:21:15.769Z,95761.72
2018-03-02T05:23:46.776Z,95751.33
2018-03-02T05:26:17.777Z,95761.27
2018-03-02T05:28:48.758Z,95757.74
2018-03-02T05:31:19.739Z,95763.27
2018-03-02T05:33:50.777Z,95757.45
2018-03-02T05:36:21.747Z,95749.46
2018-03-02T05:38:52.784Z,95749.63
2018-03-02T05:41:23.966Z,95750.59
2018-03-02T05:43:55.016Z,95752.52
2018-03-02T05:46:26.036Z,95752.12
2018-03-02T05:48:57.000Z,95749.48
2018-03-02T05:51:27.981Z,95743.55
2018-03-02T05:53:58.984Z,95738.08
2018-03-02T05:56:30.019Z,95727.22
2018-03-02T05:59:00.997Z,95726.07
2018-03-02T06:01:31.989Z,95719.27
2018-03-02T06:04:03.042Z,95709.06
2018-03-02T06:06:34.041Z,95714.09
2018-03-02T06:09:05.070Z,95711.21
2018-03-02T06:11:36.064Z,95711.48
2018-03-02T06:14:07.068Z,95716.44
2018-03-02T06:16:38.044Z,95717.33
2018-03-02T06:19:09.028Z,95718.17
2018-03-02T06:21:40.014Z,95730.68
2018-03-02T06:24:10.975Z,95722.41
2018-03-02T06:26:41.951Z,95719.05
2018-03-02T06:29:12.987Z,95722.66
2018-03-02T06:31:43.968Z,95732.30
2018-03-02T06:34:14.992Z,95740.58
2018-03-02T06:36:46.020Z,95743.81
2018-03-02T06:39:16.987Z,95741.13
2018-03-02T06:41:47.984Z,95734.63
2018-03-02T06:44:18.975Z,95736.23
2018-03-02T06:46:50.007Z,95734.58
2018-03-02T06:49:20.976Z,95724.53
2018-03-02T06:51:51.957Z,95717.22
2018-03-02T06:54:22.994Z,95708.34
2018-03-02T06:56:53.990Z,95705.07
2018-03-02T06:59:25.050Z,95697.09
2018-03-02T07:01:56.069Z,95700.95
2018-03-02T07:04:27.075Z,95697.41
2018-03-02T07:06:58.104Z,95698.10
2018-03-02T07:09:29.109Z,95698.60
2018-03-02T07:12:00.062Z,95697.71
2018-03-02T07:14:31.065Z,95686.55
2018-03-02T07:17:02.079Z,95686.56
2018-03-02T07:19:33.042Z,95680.63
2018-03-02T07:22:04.028Z,95678.44
2018-03-02T07:24:35.014Z,95672.56
2018-03-02T07:27:06.008Z,95669.02
2018-03-02T07:29:37.024Z,95671.09
2018-03-02T07:32:08.034Z,95667.73
2018-03-02T07:34:39.023Z,95668.30
2018-03-02T07:37:10.011Z,95660.64
2018-03-02T07:39:41.065Z,95656.83
2018-03-02T07:42:12.029Z,95648.36
2018-03-02T07:44:43.029Z,95648.80
2018-03-02T07:47:14.017Z,95648.41
2018-03-02T07:49:45.060Z,95644.48
2018-03-02T07:52:16.075Z,95640.05
2018-03-02T07:54:47.077Z,95633.16
2018-03-02T07:57:18.096Z,95624.69
2018-03-02T07:59:49.113Z,95631.18
2018-03-02T08:02:20.114Z,95626.84
2018-03-02T08:04:51.093Z,95633.93
2018-03-02T08:07:22.101Z,95639.48
2018-03-02T08:09:53.067Z,95630.88
2018-03-02T08:12:24.095Z,95619.35
2018-03-02T08:14:55.138Z,95604.55
2018-03-02T08:17:26.137Z,95589.70
2018-03-02T08:19:57.187Z,95578.96
2018-03-02T08:22:28.208Z,95571.95
2018-03-02T08:24:59.203Z,95559.78
2018-03-02T08:27:30.346Z,95551.95
2018-03-02T08:30:01.336Z,95544.73
2018-03-02T08:32:32.309Z,95517.46
2018-03-02T08:35:03.338Z,95532.20
2018-03-02T08:37:34.310Z,95530.39
2018-03-02T08:40:05.369Z,95538.44
2018-03-02T08:42:36.359Z,95525.64
2018-03-02T08:45:07.336Z,95519.75
2018-03-02T08:47:38.298Z,95521.72
2018-03-02T08:50:09.324Z,95515.15
2018-03-02T08:52:40.291Z,95508.80
2018-03-02T08:55:11.294Z,95509.05
2018-03-02T08:57:42.287Z,95510.57
2018-03-02T09:00:13.292Z,95506.20
2018-03-02T09:02:44.279Z,95514.73
2018-03-02T09:05:15.254Z,95515.44
2018-03-02T09:07:46.249Z,95523.34
2018-03-02T09:10:17.266Z,95515.82
2018-03-02T09:12:48.230Z,95507.80
2018-03-02T09:15:19.200Z,95501.31
2018-03-02T09:17:50.243Z,95498.79
2018-03-02T09:20:21.255Z,95491.84
2018-03-02T09:22:52.287Z,95493.84
2018-03-02T09:25:23.291Z,95499.08
2018-03-02T09:27:54.309Z,95496.66
2018-03-02T09:30:25.252Z,95488.87
2018-03-02T09:32:56.261Z,95491.31
2018-03-02T09:35:27.257Z,95492.13
2018-03-02T09:37:58.249Z,95489.59
2018-03-02T09:40:29.198Z,95483.08
2018-03-02T09:43:00.185Z,95480.59
2018-03-02T09:45:31.164Z,95483.16
2018-03-02T09:48:02.125Z,95473.06
2018-03-02T09:50:33.215Z,95473.36
2018-03-02T09:53:04.221Z,95466.03
2018-03-02T09:55:35.266Z,95465.18
2018-03-02T09:58:06.255Z,95470.32
2018-03-02T10:00:37.273Z,95458.80
2018-03-02T10:03:08.211Z,95445.41
2018-03-02T10:05:39.200Z,95456.06
2018-03-02T10:08:10.184Z,95447.23
2018-03-02T10:10:41.183Z,95447.00
2018-03-02T10:13:12.165Z,95452.50
2018-03-02T10:15:43.198Z,95448.13
2018-03-02T10:18:14.187Z,95446.07
2018-03-02T10:20:45.201Z,95438.72
2018-03-02T10:23:16.199Z,95448.43
2018-03-02T10:25:47.159Z,95446.94
2018-03-02T10:28:18.163Z,95435.96
2018-03-02T10:30:49.173Z,95440.03
2018-03-02T10:33:20.155Z,95439.69
2018-03-02T10:35:51.121Z,95434.13
2018-03-02T10:38:22.115Z,95431.58
2018-03-02T10:40:53.164Z,95436.23
2018-03-02T10:43:24.234Z,95425.32
2018-03-02T10:45:55.219Z,95433.98
2018-03-02T10:48:26.225Z,95434.48
2018-03-02T10:50:57.232Z,95430.86
2018-03-02T10:53:28.196Z,95423.09
2018-03-02T10:55:59.219Z,95421.72
2018-03-02T10:58:30.206Z,95424.16
2018-03-02T11:01:07.311Z,95418.00
2018-03-02T11:03:45.475Z,95410.41
2018-03-02T11:06:16.502Z,95399.27
2018-03-02T11:08:47.535Z,95398.12
2018-03-02T11:11:18.545Z,95393.52
2018-03-02T11:13:49.541Z,95393.08
2018-03-02T11:16:20.548Z,95383.05
2018-03-02T11:18:51.573Z,95382.29
2018-03-02T11:21:22.544Z,95385.44
2018-03-02T11:23:53.551Z,95385.77
2018-03-02T11:26:24.582Z,95377.01
2018-03-02T11:28:55.585Z,95381.76
2018-03-02T11:31:26.540Z,95374.10
2018-03-02T11:33:57.517Z,95380.00
2018-03-02T11:36:28.525Z,95385.25
2018-03-02T11:38:59.545Z,95387.94
2018-03-02T11:41:30.600Z,95387.41
2018-03-02T11:44:01.611Z,95382.73
2018-03-02T11:46:32.617Z,95386.61
2018-03-02T11:49:03.615Z,95384.27
2018-03-02T11:51:34.615Z,95390.28
2018-03-02T11:54:05.588Z,95391.54
2018-03-02T11:56:36.624Z,95383.70
2018-03-02T11:59:07.581Z,95385.48
2018-03-02T12:01:38.793Z,95388.55
2018-03-02T12:04:09.821Z,95386.03
2018-03-02T12:06:40.799Z,95385.30
2018-03-02T12:09:11.795Z,95383.78
2018-03-02T12:11:42.826Z,95375.64
2018-03-02T12:14:13.857Z,95381.26
2018-03-02T12:16:44.879Z,95373.70
2018-03-02T12:19:15.864Z,95370.62
2018-03-02T12:21:46.827Z,95366.54
2018-03-02T12:24:17.842Z,95368.29
2018-03-02T12:26:48.844Z,95366.84
2018-03-02T12:29:19.900Z,95367.61
2018-03-02T12:31:50.870Z,95363.45
2018-03-02T12:34:21.839Z,95369.99
2018-03-02T12:36:52.856Z,95369.22
2018-03-02T12:39:23.857Z,95371.42
2018-03-02T12:41:54.816Z,95373.27
2018-03-02T12:44:25.865Z,95362.45
2018-03-02T12:46:56.823Z,95362.94
2018-03-02T12:49:27.832Z,95363.42
2018-03-02T12:51:58.873Z,95366.95
2018-03-02T12:54:29.909Z,95359.55
2018-03-02T12:57:00.935Z,95360.58
2018-03-02T12:59:31.959Z,95356.23
2018-03-02T13:02:02.993Z,95360.16
2018-03-02T13:04:33.985Z,95359.08
2018-03-02T13:07:04.931Z,95365.95
2018-03-02T13:09:35.929Z,95372.00
2018-03-02T13:12:06.939Z,95373.41
2018-03-02T13:14:37.964Z,95369.69
2018-03-02T13:17:08.978Z,95366.29
2018-03-02T13:19:40.038Z,95363.26
2018-03-02T13:22:23.314Z,95349.31
2018-03-02T13:24:54.333Z,95358.49
2018-03-02T13:27:37.576Z,95362.66
2018-03-02T13:30:08.605Z,95364.59
2018-03-02T13:32:39.644Z,95374.98
2018-03-02T13:35:10.701Z,95378.01
2018-03-02T13:37:41.713Z,95376.94
2018-03-02T13:40:25.103Z,95380.14
2018-03-02T13:42:56.128Z,95383.36
2018-03-02T13:45:27.210Z,95396.95
2018-03-02T13:51:12.151Z,95411.06
2018-03-02T13:53:43.120Z,95426.19
2018-03-02T13:56:26.527Z,95445.63
2018-03-02T13:58:57.531Z,95471.65
2018-03-02T14:01:28.559Z,95466.48
2018-03-02T14:04:12.020Z,95480.56
2018-03-02T14:06:43.003Z,95480.45
2018-03-02T14:09:14.006Z,95486.20
2018-03-02T14:11:45.017Z,95492.51
2018-03-02T14:14:15.993Z,95498.92
2018-03-02T14:16:47.026Z,95495.69
2018-03-02T14:19:18.059Z,95492.90
2018-03-02T14:21:49.110Z,95497.22
2018-03-02T14:24:20.133Z,95508.66
2018-03-02T14:26:51.175Z,95514.31
2018-03-02T14:29:22.195Z,95516.10
2018-03-02T14:31:53.219Z,95524.43
2018-03-02T14:34:24.194Z,95530.80
2018-03-02T14:36:55.224Z,95534.08
2018-03-02T14:39:26.202Z,95545.02
2018-03-02T14:41:57.230Z,95552.83
2018-03-02T14:44:28.236Z,95559.86
2018-03-02T14:46:59.737Z,95566.45
2018-03-02T14:49:30.780Z,95557.37
2018-03-02T14:52:01.804Z,95550.31
2018-03-02T14:54:32.743Z,95559.58
2018-03-02T14:57:03.745Z,95564.09
2018-03-02T14:59:34.758Z,95568.53
2018-03-02T15:02:05.789Z,95568.97
2018-03-02T15:04:36.788Z,95581.53
2018-03-02T15:07:07.779Z,95577.36
2018-03-02T15:09:38.832Z,95577.25
2018-03-02T15:12:09.820Z,95577.51
2018-03-02T15:14:40.799Z,95577.24
2018-03-02T15:17:11.875Z,95583.77
2018-03-02T15:19:42.878Z,95589.00
2018-03-02T15:22:13.881Z,95585.88
2018-03-02T15:24:44.922Z,95594.86
2018-03-02T15:27:15.921Z,95590.83
2018-03-02T15:29:46.946Z,95599.47
2018-03-02T15:32:18.003Z,95592.92
2018-03-02T15:34:48.973Z,95593.19
2018-03-02T15:37:19.989Z,95601.80
2018-03-02T15:39:50.978Z,95594.99
2018-03-02T15:42:21.989Z,95600.41
2018-03-02T15:44:53.021Z,95596.47
2018-03-02T15:47:24.054Z,95602.69
2018-03-02T15:49:55.085Z,95603.17
2018-03-02T15:52:26.083Z,95615.27
2018-03-02T15:54:57.081Z,95617.55
2018-03-02T15:57:28.155Z,95613.14
2018-03-02T15:59:59.249Z,95610.41
2018-03-02T16:02:30.215Z,95602.37
2018-03-02T16:05:01.208Z,95609.81
2018-03-02T16:07:32.251Z,95614.17
2018-03-02T16:10:03.321Z,95627.77
2018-03-02T16:12:34.295Z,95635.38
2018-03-02T16:15:05.336Z,95640.16
2018-03-02T16:17:36.385Z,95638.73
2018-03-02T16:20:07.359Z,95637.48
2018-03-02T16:22:38.332Z,95647.69
2018-03-02T16:25:09.307Z,95654.56
2018-03-02T16:27:40.305Z,95655.69
2018-03-02T16:30:11.307Z,95653.88
2018-03-02T16:32:42.292Z,95666.34
2018-03-02T16:35:13.313Z,95669.55
2018-03-02T16:37:44.284Z,95673.17
2018-03-02T16:40:15.274Z,95681.89
2018-03-02T16:42:46.267Z,95692.02
2018-03-02T16:45:17.261Z,95691.36
2018-03-02T16:47:48.298Z,95694.67
2018-03-02T16:50:19.314Z,95700.34
2018-03-02T16:52:50.320Z,95695.92
2018-03-02T16:55:21.316Z,95713.07
2018-03-02T16:57:52.384Z,95703.97
2018-03-02T17:00:23.316Z,95716.89
2018-03-02T17:02:54.299Z,95728.86
2018-03-02T17:05:25.337Z,95730.83
2018-03-02T17:07:56.370Z,95736.33
2018-03-02T17:10:27.353Z,95744.66
2018-03-02T17:12:58.360Z,95741.84
2018-03-02T17:15:29.416Z,95751.30
2018-03-02T17:18:00.436Z,95756.81
2018-03-02T17:20:31.422Z,95763.75
2018-03-02T17:23:02.443Z,95765.67
2018-03-02T17:25:33.418Z,95772.02
2018-03-02T17:28:04.519Z,95778.23
2018-03-02T17:30:35.552Z,95785.48
2018-03-02T17:33:06.571Z,95786.61
2018-03-02T17:35:37.549Z,95787.22
2018-03-02T17:38:08.573Z,95789.38
2018-03-02T17:40:39.564Z,95788.23
2018-03-02T17:43:10.543Z,95798.75
2018-03-02T17:45:41.549Z,95797.90
2018-03-02T17:48:12.558Z,95806.30
2018-03-02T17:50:43.578Z,95804.84
2018-03-02T17:53:14.591Z,95802.20
2018-03-02T17:55:45.629Z,95806.14
2018-03-02T17:58:16.613Z,95813.66
2018-03-02T18:00:47.611Z,95816.77
2018-03-02T18:03:18.634Z,95814.05
2018-03-02T18:05:49.599Z,95816.45
2018-03-02T18:08:20.617Z,95816.84
2018-03-02T18:10:51.620Z,95824.63
2018-03-02T18:13:22.625Z,95829.70
2018-03-02T18:15:53.603Z,95838.69
2018-03-02T18:18:24.602Z,95837.86
2018-03-02T18:20:55.693Z,95841.50
2018-03-02T18:23:26.689Z,95844.30
2018-03-02T18:25:57.708Z,95842.44
2018-03-02T18:28:28.709Z,95841.22
2018-03-02T18:30:59.750Z,95844.97
2018-03-02T18:33:30.743Z,95842.55
2018-03-02T18:36:01.737Z,95843.95
2018-03-02T18:38:32.730Z,95839.05
2018-03-02T18:41:03.752Z,95839.63
2018-03-02T18:43:34.743Z,95841.44
2018-03-02T18:46:05.755Z,95842.66
2018-03-02T18:48:36.782Z,95853.28
2018-03-02T18:51:07.747Z,95850.53
2018-03-02T18:53:38.749Z,95844.33
2018-03-02T18:56:09.770Z,95848.50
2018-03-02T18:58:40.782Z,95849.75
2018-03-02T19:01:11.803Z,95849.13
2018-03-02T19:03:42.849Z,95840.50
2018-03-02T19:06:13.840Z,95840.89
2018-03-02T19:08:44.848Z,95841.22
2018-03-02T19:11:15.851Z,95835.12
2018-03-02T19:13:46.880Z,95829.43
2018-03-02T19:16:17.893Z,95826.27
2018-03-02T19:18:48.909Z,95829.98
2018-03-02T19:21:19.878Z,95828.80
2018-03-02T19:23:50.906Z,95835.06
2018-03-02T19:26:21.910Z,95843.23
2018-03-02T19:28:52.961Z,95842.78
2018-03-02T19:31:24.122Z,95843.69
2018-03-02T19:33:55.306Z,95839.67
2018-03-02T19:36:27.112Z,95842.00
2018-03-02T19:38:58.205Z,95846.08
2018-03-02T19:41:29.337Z,95850.31
2018-03-02T19:44:00.388Z,95852.42
2018-03-02T19:46:31.510Z,95856.99
2018-03-02T19:49:02.571Z,95859.36
2018-03-02T19:51:33.702Z,95851.89
2018-03-02T19:54:04.784Z,95861.77
2018-03-02T19:56:35.856Z,95856.64
2018-03-02T19:59:06.932Z,95853.45
2018-03-02T20:01:38.019Z,95858.73
2018-03-02T20:04:09.093Z,95855.67
2018-03-02T20:06:40.109Z,95857.41
2018-03-02T20:09:11.170Z,95854.71
2018-03-02T20:11:42.185Z,95853.39
2018-03-02T20:14:13.305Z,95848.94
2018-03-02T20:16:44.424Z,95858.34
2018-03-02T20:19:15.434Z,95860.88
2018-03-02T20:21:46.480Z,95858.11
2018-03-02T20:24:17.479Z,95854.09
2018-03-02T20:26:48.486Z,95851.77
2018-03-02T20:29:19.521Z,95846.69
2018-03-02T20:31:50.554Z,95842.41
2018-03-02T20:34:21.581Z,95850.94
2018-03-02T20:36:52.568Z,95849.61
2018-03-02T20:39:23.585Z,95858.41
2018-03-02T20:41:54.573Z,95861.83
2018-03-02T20:44:25.573Z,95860.36
2018-03-02T20:46:56.892Z,95862.30
2018-03-02T20:49:27.960Z,95854.92
2018-03-02T20:51:58.940Z,95862.28
2018-03-02T20:54:29.960Z,95866.06
2018-03-02T20:57:00.980Z,95866.62
2018-03-02T20:59:32.009Z,95874.36
2018-03-02T21:02:03.045Z,95872.58
2018-03-02T21:04:34.027Z,95867.89
2018-03-02T21:07:05.065Z,95871.62
2018-03-02T21:09:36.079Z,95868.06
2018-03-02T21:12:07.084Z,95873.42
2018-03-02T21:14:38.109Z,95878.73
2018-03-02T21:17:09.076Z,95880.88
2018-03-02T21:19:40.094Z,95881.20
2018-03-02T21:22:11.064Z,95882.49
2018-03-02T21:24:42.031Z,95884.75
2018-03-02T21:27:13.117Z,95884.30
2018-03-02T21:29:44.064Z,95889.44
2018-03-02T21:32:15.092Z,95887.10
2018-03-02T21:34:46.074Z,95893.97
2018-03-02T21:37:17.112Z,95888.72
2018-03-02T21:39:48.126Z,95882.03
2018-03-02T21:42:19.144Z,95880.79
2018-03-02T21:44:50.121Z,95880.70
2018-03-02T21:47:21.104Z,95872.82
2018-03-02T21:49:52.119Z,95876.05
2018-03-02T21:52:23.102Z,95879.02
2018-03-02T21:54:54.089Z,95877.37
2018-03-02T21:57:25.064Z,95877.30
2018-03-02T21:59:56.067Z,95876.73
2018-03-02T22:02:27.071Z,95876.08
2018-03-02T22:04:58.038Z,95874.38
2018-03-02T22:07:29.061Z,95874.72
2018-03-02T22:10:00.030Z,95880.98
2018-03-02T22:12:31.046Z,95884.66
2018-03-02T22:15:02.026Z,95884.97
2018-03-02T22:17:33.004Z,95880.19
2018-03-02T22:20:04.000Z,95880.33
2018-03-02T22:22:34.981Z,95892.00
2018-03-02T22:25:05.968Z,95894.10
2018-03-02T22:27:37.017Z,95891.27
2018-03-02T22:30:07.998Z,95884.47
2018-03-02T22:32:38.962Z,95889.54
2018-03-02T22:35:09.957Z,95882.84
2018-03-02T22:37:41.001Z,95887.08
2018-03-02T22:40:11.990Z,95887.39
2018-03-02T22:42:43.020Z,95888.23
2018-03-02T22:45:14.029Z,95883.72
2018-03-02T22:47:45.023Z,95882.99
2018-03-02T22:50:15.995Z,95890.47
2018-03-02T22:52:47.012Z,95887.16
2018-03-02T22:55:17.979Z,95897.81
2018-03-02T22:57:49.006Z,95896.52
2018-03-02T23:00:19.996Z,95895.91
2018-03-02T23:02:51.012Z,95888.05
2018-03-02T23:05:21.996Z,95893.03
2018-03-02T23:07:53.020Z,95886.66
2018-03-02T23:10:23.955Z,95888.96
2018-03-02T23:12:54.958Z,95893.60
2018-03-02T23:15:25.956Z,95892.52
2018-03-02T23:17:56.979Z,95893.42
2018-03-02T23:20:27.975Z,95893.06
2018-03-02T23:22:58.937Z,95888.13
2018-03-02T23:25:29.957Z,95888.96
2018-03-02T23:28:00.956Z,95886.94
2018-03-02T23:30:31.994Z,95891.00
2018-03-02T23:33:03.025Z,95894.10
2018-03-02T23:35:33.987Z,95886.05
2018-03-02T23:38:04.996Z,95893.86
2018-03-02T23:40:35.969Z,95888.46
2018-03-02T23:43:06.984Z,95889.98
2018-03-02T23:45:37.968Z,95879.79
2018-03-02T23:48:08.982Z,95870.66
2018-03-02T23:50:39.982Z,95871.95
2018-03-02T23:53:10.963Z,95878.20
2018-03-02T23:55:41.899Z,95880.01
2018-03-02T23:58:12.898Z,95883.39
